createdAt,value
2023-02-20T00:01:52.668Z,2.90
2023-02-20T00:04:21.858Z,3.30
2023-02-20T00:06:50.740Z,3.40
2023-02-20T00:09:19.307Z,3.10
2023-02-20T00:11:49.936Z,2.80
2023-02-20T00:14:23.401Z,3.00
2023-02-20T00:16:51.730Z,3.30
2023-02-20T00:19:20.994Z,2.80
2023-02-20T00:21:50.364Z,2.80
2023-02-20T00:24:20.416Z,2.40
2023-02-20T00:26:49.408Z,3.10
2023-02-20T00:29:24.820Z,2.90
2023-02-20T00:31:56.448Z,2.60
2023-02-20T00:34:29.019Z,2.60
2023-02-20T00:37:00.880Z,2.20
2023-02-20T00:39:31.410Z,2.80
2023-02-20T00:42:00.288Z,3.00
2023-02-20T00:44:33.797Z,2.80
2023-02-20T00:47:05.113Z,1.80
2023-02-20T00:49:34.070Z,2.60
2023-02-20T00:52:15.391Z,2.70
2023-02-20T00:54:43.537Z,2.80
2023-02-20T00:57:14.230Z,2.70
2023-02-20T00:59:42.223Z,2.60
2023-02-20T01:02:21.996Z,2.10
2023-02-20T01:04:52.058Z,2.60
2023-02-20T01:07:20.746Z,2.70
2023-02-20T01:09:48.918Z,2.40
2023-02-20T01:12:17.045Z,2.40
2023-02-20T01:14:46.021Z,2.70
2023-02-20T01:17:15.080Z,2.30
2023-02-20T01:19:44.474Z,2.20
2023-02-20T01:22:12.678Z,2.80
2023-02-20T01:24:43.390Z,2.30
2023-02-20T01:27:11.576Z,2.40
2023-02-20T01:29:39.894Z,2.40
2023-02-20T01:32:14.331Z,2.30
2023-02-20T01:34:49.202Z,2.40
2023-02-20T01:37:18.427Z,2.60
2023-02-20T01:39:47.872Z,2.30
2023-02-20T01:42:22.470Z,2.40
2023-02-20T01:44:50.898Z,2.10
2023-02-20T01:47:22.465Z,2.50
2023-02-20T01:49:52.762Z,2.60
2023-02-20T01:52:30.471Z,2.10
2023-02-20T01:55:01.530Z,2.20
2023-02-20T01:57:32.647Z,2.10
2023-02-20T02:00:11.871Z,2.10
2023-02-20T02:02:45.733Z,2.60
2023-02-20T02:05:13.786Z,2.30
2023-02-20T02:07:41.905Z,2.30
2023-02-20T02:10:14.839Z,2.40
2023-02-20T02:12:45.873Z,2.20
2023-02-20T02:15:15.916Z,2.30
2023-02-20T02:17:54.509Z,2.60
2023-02-20T02:20:50.794Z,2.00
2023-02-20T02:23:52.714Z,2.40
2023-02-20T02:26:58.900Z,2.40
2023-02-20T02:29:49.880Z,2.50
2023-02-20T02:32:24.710Z,2.30
2023-02-20T02:35:25.166Z,2.30
2023-02-20T02:38:18.918Z,2.60
2023-02-20T02:40:58.374Z,2.20
2023-02-20T02:43:52.322Z,2.20
2023-02-20T02:46:35.767Z,2.30
2023-02-20T02:49:20.603Z,2.10
2023-02-20T02:51:48.716Z,2.30
2023-02-20T02:54:28.335Z,2.90
2023-02-20T02:57:21.775Z,2.20
2023-02-20T02:59:54.276Z,2.50
2023-02-20T03:02:22.654Z,2.20
2023-02-20T03:04:52.111Z,2.50
2023-02-20T03:07:20.098Z,2.30
2023-02-20T03:09:52.803Z,2.40
2023-02-20T03:12:21.934Z,2.50
2023-02-20T03:15:21.332Z,2.60
2023-02-20T03:17:58.813Z,2.50
2023-02-20T03:20:27.030Z,2.50
2023-02-20T03:22:59.704Z,2.40
2023-02-20T03:25:31.049Z,2.50
2023-02-20T03:31:00.675Z,2.70
2023-02-20T03:33:55.630Z,2.60
2023-02-20T03:36:45.312Z,2.60
2023-02-20T03:39:36.040Z,2.80
2023-02-20T03:42:23.308Z,2.80
2023-02-20T03:44:54.739Z,2.60
2023-02-20T03:47:28.909Z,2.20
2023-02-20T03:49:57.006Z,2.70
2023-02-20T03:52:25.576Z,2.20
2023-02-20T03:54:53.949Z,2.40
2023-02-20T03:57:26.523Z,2.60
2023-02-20T03:59:58.217Z,3.00
2023-02-20T04:02:31.104Z,2.20
2023-02-20T04:05:08.240Z,2.80
2023-02-20T04:07:48.496Z,2.20
2023-02-20T04:10:20.847Z,2.30
2023-02-20T04:12:52.834Z,2.10
2023-02-20T04:15:21.114Z,2.30
2023-02-20T04:18:01.464Z,2.40
2023-02-20T04:20:30.054Z,2.70
2023-02-20T04:23:14.522Z,2.20
2023-02-20T04:25:47.940Z,2.50
2023-02-20T04:28:16.325Z,2.10
2023-02-20T04:30:51.196Z,2.30
2023-02-20T04:33:20.222Z,2.50
2023-02-20T04:35:49.691Z,2.30
2023-02-20T04:38:19.007Z,2.20
2023-02-20T04:40:47.135Z,2.50
2023-02-20T04:43:15.744Z,2.30
2023-02-20T04:45:48.255Z,2.50
2023-02-20T04:48:16.759Z,2.40
2023-02-20T04:50:44.886Z,2.70
2023-02-20T04:53:14.089Z,2.50
2023-02-20T04:55:42.492Z,2.50
2023-02-20T04:58:14.230Z,2.00
2023-02-20T05:01:06.369Z,2.20
2023-02-20T05:03:35.998Z,2.40
2023-02-20T05:06:05.335Z,1.90
2023-02-20T05:08:34.262Z,2.10
2023-02-20T05:11:02.269Z,2.60
2023-02-20T05:13:31.572Z,2.40
2023-02-20T05:15:59.557Z,2.40
2023-02-20T05:18:30.164Z,2.40
2023-02-20T05:21:17.236Z,2.30
2023-02-20T05:23:48.865Z,2.40
2023-02-20T05:26:21.601Z,1.80
2023-02-20T05:28:49.762Z,2.00
2023-02-20T05:31:18.260Z,1.90
2023-02-20T05:33:46.993Z,2.20
2023-02-20T05:36:15.946Z,2.00
2023-02-20T05:38:49.279Z,2.20
2023-02-20T05:41:17.405Z,1.90
2023-02-20T05:43:46.018Z,2.20
2023-02-20T05:46:15.603Z,2.30
2023-02-20T05:48:43.741Z,2.10
2023-02-20T05:51:28.819Z,2.40
2023-02-20T05:53:57.002Z,2.50
2023-02-20T05:56:25.491Z,2.30
2023-02-20T05:58:53.465Z,2.10
2023-02-20T06:01:23.832Z,2.00
2023-02-20T06:03:52.282Z,2.50
2023-02-20T06:06:21.148Z,2.40
2023-02-20T06:08:49.211Z,2.30
2023-02-20T06:11:18.011Z,2.10
2023-02-20T06:13:46.743Z,2.40
2023-02-20T06:16:22.190Z,2.30
2023-02-20T06:18:50.532Z,2.00
2023-02-20T06:21:19.205Z,2.10
2023-02-20T06:23:48.913Z,2.00
2023-02-20T06:26:17.815Z,1.60
2023-02-20T06:28:45.857Z,1.90
2023-02-20T06:31:14.175Z,1.60
2023-02-20T06:33:42.246Z,2.10
2023-02-20T06:36:21.624Z,1.50
2023-02-20T06:38:50.410Z,1.70
2023-02-20T06:41:19.128Z,1.90
2023-02-20T06:43:47.504Z,1.60
2023-02-20T06:46:15.621Z,1.50
2023-02-20T06:48:48.383Z,1.70
2023-02-20T06:51:17.636Z,1.60
2023-02-20T06:53:45.738Z,1.50
2023-02-20T06:56:22.246Z,1.90
2023-02-20T06:58:53.819Z,1.50
2023-02-20T07:01:27.093Z,2.00
2023-02-20T07:03:55.487Z,1.70
2023-02-20T07:06:29.346Z,1.40
2023-02-20T07:08:57.514Z,1.70
2023-02-20T07:11:25.455Z,1.70
2023-02-20T07:13:53.597Z,1.80
2023-02-20T07:16:21.934Z,2.20
2023-02-20T07:18:52.099Z,1.70
2023-02-20T07:21:21.212Z,2.20
2023-02-20T07:23:49.234Z,2.20
2023-02-20T07:26:21.706Z,1.70
2023-02-20T07:28:49.937Z,1.80
2023-02-20T07:31:18.130Z,1.70
2023-02-20T07:33:46.864Z,1.90
2023-02-20T07:36:15.319Z,1.50
2023-02-20T07:38:43.554Z,2.20
2023-02-20T07:41:11.832Z,1.70
2023-02-20T07:43:39.847Z,1.70
2023-02-20T07:46:09.411Z,1.90
2023-02-20T07:48:40.374Z,1.80
2023-02-20T07:51:08.854Z,1.50
2023-02-20T07:53:37.474Z,1.50
2023-02-20T07:56:06.080Z,1.70
2023-02-20T07:58:34.304Z,1.70
2023-02-20T08:01:02.800Z,1.90
2023-02-20T08:03:31.682Z,1.70
2023-02-20T08:06:00.028Z,1.80
2023-02-20T08:08:32.365Z,1.80
2023-02-20T08:11:08.697Z,1.60
2023-02-20T08:13:38.656Z,1.40
2023-02-20T08:16:06.997Z,2.30
2023-02-20T08:18:35.722Z,1.70
2023-02-20T08:21:04.374Z,1.40
2023-02-20T08:23:32.606Z,1.40
2023-02-20T08:26:00.660Z,1.30
2023-02-20T08:28:29.486Z,1.20
2023-02-20T08:30:57.744Z,1.20
2023-02-20T08:33:26.288Z,1.40
2023-02-20T08:35:55.538Z,1.30
2023-02-20T08:38:26.642Z,1.30
2023-02-20T08:40:54.693Z,1.20
2023-02-20T08:43:22.947Z,1.10
2023-02-20T08:45:52.448Z,1.30
2023-02-20T08:48:25.558Z,1.10
2023-02-20T08:50:54.073Z,1.30
2023-02-20T08:53:22.088Z,1.50
2023-02-20T08:55:50.572Z,1.50
2023-02-20T08:58:23.081Z,1.60
2023-02-20T09:00:52.555Z,1.50
2023-02-20T09:03:20.575Z,1.50
2023-02-20T09:05:48.982Z,1.40
2023-02-20T09:08:17.202Z,1.30
2023-02-20T09:10:48.200Z,1.50
2023-02-20T09:13:17.501Z,1.30
2023-02-20T09:15:45.469Z,1.20
2023-02-20T09:18:15.486Z,1.50
2023-02-20T09:20:43.413Z,1.40
2023-02-20T09:23:14.039Z,1.30
2023-02-20T09:25:42.282Z,1.50
2023-02-20T09:28:10.234Z,1.10
2023-02-20T09:30:40.631Z,1.10
2023-02-20T09:33:12.041Z,1.30
2023-02-20T09:35:41.748Z,1.40
2023-02-20T09:38:09.861Z,1.20
2023-02-20T09:40:38.885Z,1.50
2023-02-20T09:43:18.487Z,1.10
2023-02-20T09:45:56.724Z,1.80
2023-02-20T09:48:57.174Z,1.50
2023-02-20T09:51:37.401Z,1.50
2023-02-20T09:54:29.128Z,1.40
2023-02-20T09:57:00.922Z,1.20
2023-02-20T09:59:33.930Z,2.50
2023-02-20T10:02:19.185Z,1.40
2023-02-20T10:07:32.637Z,1.50
2023-02-20T10:10:01.169Z,1.60
2023-02-20T10:12:51.727Z,1.40
2023-02-20T10:15:24.334Z,1.50
2023-02-20T10:18:33.186Z,1.60
2023-02-20T10:21:06.917Z,1.70
2023-02-20T10:24:05.631Z,1.60
2023-02-20T10:26:36.330Z,1.90
2023-02-20T10:29:24.652Z,1.70
2023-02-20T10:32:06.309Z,1.70
2023-02-20T10:34:40.965Z,1.70
2023-02-20T10:37:14.370Z,1.70
2023-02-20T10:39:48.482Z,1.50
2023-02-20T10:42:32.127Z,1.80
2023-02-20T10:45:05.859Z,1.50
2023-02-20T10:47:50.928Z,1.60
2023-02-20T10:50:25.351Z,1.80
2023-02-20T10:53:03.749Z,1.40
2023-02-20T10:55:59.297Z,1.70
2023-02-20T10:58:35.590Z,1.80
2023-02-20T11:01:09.332Z,2.00
2023-02-20T11:03:58.128Z,2.10
2023-02-20T11:06:36.582Z,2.90
2023-02-20T11:09:06.200Z,1.90
2023-02-20T11:14:25.458Z,2.00
2023-02-20T11:17:18.006Z,2.20
2023-02-20T11:19:49.690Z,1.70
2023-02-20T11:22:19.504Z,2.20
2023-02-20T11:24:48.316Z,2.30
2023-02-20T11:27:17.130Z,2.00
2023-02-20T11:30:31.763Z,2.50
2023-02-20T11:33:26.827Z,2.70
2023-02-20T11:36:09.080Z,2.30
2023-02-20T11:38:37.527Z,2.60
2023-02-20T11:41:37.167Z,2.60
2023-02-20T11:44:08.365Z,2.20
2023-02-20T11:46:37.338Z,2.60
2023-02-20T11:49:29.299Z,2.10
2023-02-20T11:52:19.206Z,3.00
2023-02-20T11:54:48.232Z,2.20
2023-02-20T11:57:16.248Z,2.10
2023-02-20T11:59:51.091Z,2.10
2023-02-20T12:02:24.828Z,2.50
2023-02-20T12:05:13.162Z,2.30
2023-02-20T12:07:51.024Z,2.10
2023-02-20T12:10:25.580Z,2.10
2023-02-20T12:12:57.410Z,1.70
2023-02-20T12:15:28.152Z,2.40
2023-02-20T12:18:41.232Z,1.90
2023-02-20T12:21:26.768Z,1.90
2023-02-20T12:24:07.262Z,1.90
2023-02-20T12:26:56.538Z,2.40
2023-02-20T12:29:46.697Z,2.30
2023-02-20T12:32:27.862Z,2.30
2023-02-20T12:35:29.859Z,2.30
2023-02-20T12:38:09.446Z,2.50
2023-02-20T12:40:47.189Z,2.40
2023-02-20T12:43:27.427Z,2.10
2023-02-20T12:46:07.400Z,2.20
2023-02-20T12:49:11.088Z,2.50
2023-02-20T12:51:54.356Z,2.00
2023-02-20T12:54:50.888Z,2.40
2023-02-20T12:57:24.204Z,2.60
2023-02-20T12:59:55.483Z,2.10
2023-02-20T13:02:43.202Z,2.30
2023-02-20T13:05:21.244Z,2.10
2023-02-20T13:07:57.611Z,2.40
2023-02-20T13:10:29.795Z,2.80
2023-02-20T13:12:58.258Z,2.80
2023-02-20T13:15:50.873Z,2.60
2023-02-20T13:18:40.642Z,2.60
2023-02-20T13:21:14.060Z,2.30
2023-02-20T13:23:42.852Z,2.70
2023-02-20T13:26:31.411Z,2.60
2023-02-20T13:29:26.953Z,2.80
2023-02-20T13:32:21.735Z,2.30
2023-02-20T13:34:50.206Z,2.90
2023-02-20T13:37:35.273Z,3.20
2023-02-20T13:40:28.591Z,3.10
2023-02-20T13:43:23.610Z,2.70
2023-02-20T13:46:00.995Z,2.70
2023-02-20T13:48:29.304Z,2.90
2023-02-20T13:51:16.326Z,2.80
2023-02-20T13:54:07.230Z,2.60
2023-02-20T13:56:39.742Z,2.60
2023-02-20T14:02:24.838Z,2.40
2023-02-20T14:05:04.843Z,2.60
2023-02-20T14:07:40.834Z,2.50
2023-02-20T14:10:29.982Z,3.20
2023-02-20T14:13:05.475Z,2.70
2023-02-20T14:15:34.617Z,3.00
2023-02-20T14:18:02.646Z,2.90
2023-02-20T14:20:36.109Z,3.30
2023-02-20T14:23:09.883Z,3.20
2023-02-20T14:25:40.010Z,3.50
2023-02-20T14:28:15.005Z,3.40
2023-02-20T14:30:44.846Z,3.60
2023-02-20T14:33:27.091Z,3.30
2023-02-20T14:36:05.308Z,2.80
2023-02-20T14:38:45.677Z,3.20
2023-02-20T14:41:18.286Z,4.00
2023-02-20T14:43:54.795Z,5.70
2023-02-20T14:46:29.444Z,4.30
2023-02-20T14:49:17.434Z,4.10
2023-02-20T14:51:45.939Z,3.40
2023-02-20T14:54:19.897Z,4.20
2023-02-20T14:56:50.850Z,3.60
2023-02-20T14:59:37.101Z,3.80
2023-02-20T15:02:06.283Z,3.60
2023-02-20T15:04:37.514Z,3.10
2023-02-20T15:07:06.350Z,3.60
2023-02-20T15:09:39.702Z,4.50
2023-02-20T15:12:09.776Z,3.70
2023-02-20T15:14:42.367Z,3.80
2023-02-20T15:17:34.016Z,4.40
2023-02-20T15:20:20.048Z,4.70
2023-02-20T15:22:48.133Z,4.30
2023-02-20T15:25:26.034Z,4.40
2023-02-20T15:28:16.981Z,4.60
2023-02-20T15:31:09.734Z,4.60
2023-02-20T15:33:41.818Z,5.40
2023-02-20T15:36:13.367Z,4.60
2023-02-20T15:38:41.961Z,4.60
2023-02-20T15:41:10.764Z,6.10
2023-02-20T15:43:49.642Z,5.90
2023-02-20T15:46:19.246Z,6.40
2023-02-20T15:48:47.854Z,6.00
2023-02-20T15:51:19.938Z,6.30
2023-02-20T15:53:52.709Z,5.90
2023-02-20T15:56:21.453Z,5.90
2023-02-20T15:58:51.799Z,7.40
2023-02-20T16:01:20.298Z,7.70
2023-02-20T16:03:53.080Z,7.90
2023-02-20T16:06:22.724Z,8.60
2023-02-20T16:08:52.506Z,8.60
2023-02-20T16:11:21.900Z,8.90
2023-02-20T16:13:53.602Z,8.70
2023-02-20T16:16:49.138Z,9.20
2023-02-20T16:19:20.199Z,8.50
2023-02-20T16:24:27.732Z,7.20
2023-02-20T16:26:56.189Z,8.10
2023-02-20T16:29:31.246Z,10.40
2023-02-20T16:32:00.112Z,7.90
2023-02-20T16:34:35.459Z,8.80
2023-02-20T16:37:12.263Z,8.00
2023-02-20T16:39:40.730Z,8.40
2023-02-20T16:42:35.903Z,8.40
2023-02-20T16:45:17.733Z,8.40
2023-02-20T16:47:48.558Z,8.00
2023-02-20T16:50:20.073Z,7.40
2023-02-20T16:52:50.287Z,7.40
2023-02-20T16:55:21.986Z,7.00
2023-02-20T16:57:50.063Z,7.90
2023-02-20T17:00:20.639Z,7.00
2023-02-20T17:02:48.990Z,7.20
2023-02-20T17:05:19.266Z,7.20
2023-02-20T17:07:47.777Z,6.70
2023-02-20T17:10:22.286Z,7.20
2023-02-20T17:12:50.939Z,7.10
2023-02-20T17:15:21.085Z,4.80
2023-02-20T17:17:49.699Z,6.50
2023-02-20T17:20:20.522Z,5.80
2023-02-20T17:23:02.703Z,6.30
2023-02-20T17:25:34.941Z,6.60
2023-02-20T17:28:05.261Z,6.80
2023-02-20T17:30:34.957Z,5.60
2023-02-20T17:33:03.254Z,5.30
2023-02-20T17:35:33.088Z,6.30
2023-02-20T17:38:01.285Z,6.60
2023-02-20T17:40:29.983Z,6.10
2023-02-20T17:42:58.663Z,6.70
2023-02-20T17:45:26.953Z,6.80
2023-02-20T17:47:55.005Z,6.70
2023-02-20T17:50:23.177Z,7.90
2023-02-20T17:52:54.492Z,7.20
2023-02-20T17:55:26.598Z,7.00
2023-02-20T17:57:54.705Z,6.40
2023-02-20T18:00:25.807Z,7.30
2023-02-20T18:02:54.697Z,7.00
2023-02-20T18:05:23.089Z,7.70
2023-02-20T18:07:54.231Z,7.00
2023-02-20T18:10:22.270Z,6.80
2023-02-20T18:13:02.686Z,7.40
2023-02-20T18:15:33.159Z,7.30
2023-02-20T18:18:05.538Z,7.90
2023-02-20T18:20:34.125Z,7.00
2023-02-20T18:23:02.238Z,7.70
2023-02-20T18:25:40.150Z,6.00
2023-02-20T18:28:09.312Z,12.30
2023-02-20T18:30:37.851Z,17.40
2023-02-20T18:33:06.783Z,23.70
2023-02-20T18:35:36.596Z,12.60
2023-02-20T18:38:05.155Z,11.30
2023-02-20T18:40:34.430Z,8.20
2023-02-20T18:43:02.533Z,9.50
2023-02-20T18:45:30.893Z,9.50
2023-02-20T18:47:59.111Z,11.50
2023-02-20T18:50:27.501Z,14.70
2023-02-20T18:52:59.955Z,15.60
2023-02-20T18:55:28.446Z,14.50
2023-02-20T18:57:59.394Z,17.00
2023-02-20T19:00:30.644Z,14.00
2023-02-20T19:03:03.562Z,12.50
2023-02-20T19:05:31.664Z,14.30
2023-02-20T19:08:04.042Z,17.30
2023-02-20T19:10:32.621Z,19.70
2023-02-20T19:13:00.925Z,15.80
2023-02-20T19:15:34.089Z,12.00
2023-02-20T19:18:03.903Z,11.20
2023-02-20T19:20:32.687Z,10.40
2023-02-20T19:23:03.769Z,9.40
2023-02-20T19:25:33.386Z,11.20
2023-02-20T19:28:01.514Z,11.10
2023-02-20T19:30:30.153Z,11.10
2023-02-20T19:33:02.602Z,12.00
2023-02-20T19:35:32.145Z,10.00
2023-02-20T19:38:00.764Z,9.30
2023-02-20T19:40:29.338Z,11.10
2023-02-20T19:42:58.886Z,8.30
2023-02-20T19:45:26.962Z,13.00
2023-02-20T19:47:55.822Z,12.80
2023-02-20T19:50:23.993Z,15.30
2023-02-20T19:52:52.102Z,13.70
2023-02-20T19:55:23.418Z,15.90
2023-02-20T19:57:51.637Z,13.60
2023-02-20T20:00:20.268Z,11.00
2023-02-20T20:02:48.804Z,12.20
2023-02-20T20:05:17.234Z,11.50
2023-02-20T20:07:50.536Z,7.50
2023-02-20T20:10:24.963Z,9.60
2023-02-20T20:12:53.298Z,8.30
2023-02-20T20:15:23.374Z,8.30
2023-02-20T20:17:59.682Z,9.70
2023-02-20T20:20:28.310Z,7.70
2023-02-20T20:22:58.466Z,8.10
2023-02-20T20:25:26.761Z,10.50
2023-02-20T20:28:02.166Z,8.30
2023-02-20T20:30:32.150Z,7.70
2023-02-20T20:33:03.950Z,8.50
2023-02-20T20:35:33.902Z,7.60
2023-02-20T20:38:02.259Z,8.00
2023-02-20T20:40:30.964Z,7.40
2023-02-20T20:43:04.072Z,7.10
2023-02-20T20:45:31.999Z,8.70
2023-02-20T20:48:00.187Z,8.20
2023-02-20T20:50:28.910Z,8.10
2023-02-20T20:53:03.255Z,8.40
2023-02-20T20:55:35.252Z,11.20
2023-02-20T20:58:03.297Z,11.00
2023-02-20T21:00:32.759Z,9.90
2023-02-20T21:05:32.789Z,8.00
2023-02-20T21:08:06.406Z,8.50
2023-02-20T21:10:38.137Z,7.50
2023-02-20T21:13:06.120Z,6.10
2023-02-20T21:18:07.591Z,5.80
2023-02-20T21:20:39.777Z,5.30
2023-02-20T21:23:11.098Z,6.00
2023-02-20T21:25:42.009Z,5.00
2023-02-20T21:28:11.954Z,4.90
2023-02-20T21:30:40.388Z,4.80
2023-02-20T21:33:08.768Z,4.60
2023-02-20T21:35:37.753Z,5.00
2023-02-20T21:38:07.015Z,4.60
2023-02-20T21:40:35.723Z,4.90
2023-02-20T21:43:23.283Z,5.30
2023-02-20T21:45:51.410Z,4.90
2023-02-20T21:48:20.182Z,4.80
2023-02-20T21:50:48.356Z,5.60
2023-02-20T21:53:18.350Z,5.50
2023-02-20T21:55:47.384Z,5.40
2023-02-20T21:58:17.801Z,6.10
2023-02-20T22:00:46.070Z,6.10
2023-02-20T22:03:14.487Z,6.60
2023-02-20T22:05:43.141Z,6.70
2023-02-20T22:08:29.882Z,5.40
2023-02-20T22:11:16.683Z,6.40
2023-02-20T22:14:03.535Z,6.20
2023-02-20T22:16:53.077Z,6.30
2023-02-20T22:19:41.206Z,6.20
2023-02-20T22:24:38.623Z,5.10
2023-02-20T22:27:27.564Z,6.50
2023-02-20T22:30:15.590Z,6.40
2023-02-20T22:33:04.725Z,5.90
2023-02-20T22:35:52.643Z,5.90
2023-02-20T22:38:41.007Z,6.50
2023-02-20T22:41:27.816Z,4.90
2023-02-20T22:44:19.234Z,5.70
2023-02-20T22:47:05.850Z,5.40
2023-02-20T22:49:52.755Z,4.90
2023-02-20T22:52:39.874Z,4.90
2023-02-20T22:55:26.736Z,5.10
2023-02-20T22:58:13.666Z,4.50
2023-02-20T23:01:00.649Z,5.00
2023-02-20T23:03:48.029Z,5.30
2023-02-20T23:06:39.208Z,4.10
2023-02-20T23:09:26.619Z,5.10
2023-02-20T23:12:15.435Z,5.50
2023-02-20T23:15:02.682Z,4.70
2023-02-20T23:17:53.516Z,5.70
2023-02-20T23:20:42.176Z,4.90
2023-02-20T23:23:29.886Z,5.30
2023-02-20T23:26:18.101Z,5.70
2023-02-20T23:29:07.288Z,6.70
2023-02-20T23:31:56.754Z,5.50
2023-02-20T23:34:47.531Z,6.40
2023-02-20T23:37:34.279Z,6.20
2023-02-20T23:40:30.652Z,7.10
2023-02-20T23:43:21.993Z,6.60
2023-02-20T23:46:10.114Z,6.10
2023-02-20T23:48:56.842Z,8.00
2023-02-20T23:51:44.813Z,7.00
2023-02-20T23:54:31.811Z,7.60
2023-02-20T23:57:24.454Z,7.70
